Time;durP1;ratioP1;P1;durP2;ratioP2;P2;SDS_P1;SDS_P2;PMS_P1;PMS_P2;Temp;Humidity;BMP_temperature;BMP_pressure;BME280_temperature;BME280_humidity;BME280_pressure;Samples;Min_cycle;Max_cycle;Signal;HPM_P1;HPM_P2
2023/10/14 00:00:50;;;;;;;;;;;;;;;13.41;100.00;100026.19;5116169;28;20002;-47
2023/10/14 00:03:28;;;;;;;;;;;;;;;13.37;100.00;100024.44;5115043;28;20311;-50
2023/10/14 00:05:54;;;;;;;;;;;;;;;13.34;100.00;100027.84;5116239;28;20278;-50
2023/10/14 00:08:20;;;;;;;;;;;;;;;13.29;100.00;100033.88;5115576;28;20041;-50
2023/10/14 00:10:46;;;;;;;;;;;;;;;13.27;100.00;100051.09;5115294;28;19994;-50
2023/10/14 00:13:13;;;;;;;;;;;;;;;13.25;100.00;100064.03;5115752;28;19912;-47
2023/10/14 00:15:39;;;;;;;;;;;;;;;13.23;100.00;100054.53;5116044;28;19911;-48
2023/10/14 00:18:05;;;;;;;;;;;;;;;13.18;100.00;100037.25;5115058;28;20056;-48
2023/10/14 00:20:35;;;;;;;;;;;;;;;13.13;100.00;100049.31;5115661;28;20010;-47
2023/10/14 00:23:00;;;;;;;;;;;;;;;13.11;100.00;100037.22;5116481;28;20063;-49
2023/10/14 00:25:25;;;;;;;;;;;;;;;13.06;100.00;100038.91;5114535;28;20049;-47
2023/10/14 00:27:50;;;;;;;;;;;;;;;13.04;100.00;100064.78;5115548;28;20367;-48
2023/10/14 00:30:19;;;;;;;;;;;;;;;13.04;100.00;100054.41;5115291;28;19912;-47
2023/10/14 00:32:44;;;;;;;;;;;;;;;13.02;100.00;100056.97;5114841;28;19915;-47
2023/10/14 00:35:11;;;;;;;;;;;;;;;13.01;100.00;100054.38;5115448;28;20289;-47
2023/10/14 00:37:36;;;;;;;;;;;;;;;13.00;100.00;100063.00;5115372;28;20248;-47
2023/10/14 00:40:11;;;;;;;;;;;;;;;12.99;100.00;100081.97;5114861;28;19998;-48
2023/10/14 00:42:37;;;;;;;;;;;;;;;12.99;100.00;100100.09;5115526;28;19915;-48
2023/10/14 00:45:09;;;;;;;;;;;;;;;12.98;100.00;100106.97;5114661;28;20287;-47
2023/10/14 00:47:34;;;;;;;;;;;;;;;12.97;100.00;100114.72;5115576;28;19912;-47
2023/10/14 00:50:02;;;;;;;;;;;;;;;12.97;100.00;100105.22;5115121;28;19916;-48
2023/10/14 00:52:29;;;;;;;;;;;;;;;12.98;100.00;100116.44;5114474;28;19990;-47
2023/10/14 00:57:20;;;;;;;;;;;;;;;12.97;100.00;100127.63;5114435;28;19962;-47
2023/10/14 00:59:50;;;;;;;;;;;;;;;12.94;100.00;100123.31;5114165;28;19916;-48
2023/10/14 01:02:16;;;;;;;;;;;;;;;12.95;100.00;100126.75;5114637;28;20429;-48
2023/10/14 01:04:48;;;;;;;;;;;;;;;12.95;100.00;100126.75;5114867;28;19911;-50
2023/10/14 01:07:13;;;;;;;;;;;;;;;12.95;100.00;100132.81;5113895;28;19911;-51
2023/10/14 01:12:27;;;;;;;;;;;;;;;12.89;100.00;100143.09;5114828;28;19957;-51
2023/10/14 01:14:53;;;;;;;;;;;;;;;12.85;100.00;100173.22;5113852;28;19912;-50
2023/10/14 01:17:26;;;;;;;;;;;;;;;12.77;100.00;100177.47;5114506;28;19912;-46
2023/10/14 01:19:51;;;;;;;;;;;;;;;12.64;100.00;100168.72;5114715;28;19912;-46
2023/10/14 01:22:17;;;;;;;;;;;;;;;12.54;100.00;100168.59;5113536;28;19918;-47
2023/10/14 01:24:42;;;;;;;;;;;;;;;12.41;100.00;100171.06;5114777;28;19918;-46
2023/10/14 01:27:10;;;;;;;;;;;;;;;12.33;100.00;100180.44;5113779;28;19918;-50
2023/10/14 01:29:41;;;;;;;;;;;;;;;12.25;100.00;100194.97;5114438;28;19923;-48
2023/10/14 01:32:23;;;;;;;;;;;;;;;12.19;100.00;100203.53;5114652;28;20022;-46
2023/10/14 01:34:48;;;;;;;;;;;;;;;12.17;100.00;100216.44;5113655;28;19916;-47
2023/10/14 01:37:18;;;;;;;;;;;;;;;12.17;100.00;100212.97;5113959;28;19912;-47
2023/10/14 01:39:56;;;;;;;;;;;;;;;12.15;100.00;100223.28;5114265;28;19912;-47
2023/10/14 01:42:21;;;;;;;;;;;;;;;12.15;100.00;100238.78;5113227;28;19918;-47
2023/10/14 01:44:47;;;;;;;;;;;;;;;12.13;100.00;100237.03;5114111;28;19911;-49
2023/10/14 01:47:12;;;;;;;;;;;;;;;12.11;100.00;100244.78;5113845;28;19912;-46
2023/10/14 01:49:37;;;;;;;;;;;;;;;12.12;100.00;100251.69;5113749;28;19965;-49
2023/10/14 01:52:06;;;;;;;;;;;;;;;12.12;100.00;100259.44;5113954;28;19988;-49
2023/10/14 01:54:31;;;;;;;;;;;;;;;12.10;100.00;100266.28;5113622;28;19918;-47
2023/10/14 01:56:57;;;;;;;;;;;;;;;12.04;100.00;100271.34;5113298;28;19915;-50
2023/10/14 01:59:23;;;;;;;;;;;;;;;11.96;100.00;100283.28;5113612;28;20006;-48
2023/10/14 02:01:49;;;;;;;;;;;;;;;11.88;100.00;100292.59;5113856;28;19918;-50
2023/10/14 02:04:15;;;;;;;;;;;;;;;11.82;100.00;100298.53;5112876;28;19995;-50
2023/10/14 02:06:45;;;;;;;;;;;;;;;11.77;100.00;100313.94;5113897;28;20006;-49
2023/10/14 02:09:11;;;;;;;;;;;;;;;11.73;100.00;100319.06;5112226;28;20025;-46
2023/10/14 02:11:36;;;;;;;;;;;;;;;11.70;100.00;100325.03;5114005;28;20382;-47
2023/10/14 02:14:06;;;;;;;;;;;;;;;11.69;100.00;100328.44;5113964;28;20367;-47
2023/10/14 02:16:40;;;;;;;;;;;;;;;11.68;100.00;100327.59;5112955;28;19950;-47
2023/10/14 02:19:20;;;;;;;;;;;;;;;11.68;100.00;100334.44;5113886;28;19915;-48
2023/10/14 02:21:49;;;;;;;;;;;;;;;11.67;100.00;100343.03;5113532;28;20274;-46
2023/10/14 02:24:18;;;;;;;;;;;;;;;11.67;100.00;100350.78;5112614;28;20378;-46
2023/10/14 02:26:43;;;;;;;;;;;;;;;11.67;100.00;100361.09;5113779;28;19908;-47
2023/10/14 02:29:10;;;;;;;;;;;;;;;11.64;100.00;100367.06;5113757;28;19912;-47
2023/10/14 02:31:36;;;;;;;;;;;;;;;11.63;100.00;100369.63;5112855;28;19919;-46
2023/10/14 02:34:06;;;;;;;;;;;;;;;11.60;100.00;100370.44;5113561;28;19911;-48
2023/10/14 02:36:35;;;;;;;;;;;;;;;11.56;100.00;100384.16;5113485;28;19915;-49
2023/10/14 02:39:01;;;;;;;;;;;;;;;11.54;100.00;100391.00;5112625;28;20385;-47
2023/10/14 02:41:27;;;;;;;;;;;;;;;11.52;100.00;100397.84;5113291;28;20006;-48
2023/10/14 02:44:00;;;;;;;;;;;;;;;11.48;100.00;100407.25;5113685;28;19912;-48
2023/10/14 02:46:27;;;;;;;;;;;;;;;11.44;100.00;100410.59;5112767;28;20317;-46
2023/10/14 02:48:53;;;;;;;;;;;;;;;11.39;100.00;100424.25;5113428;28;20282;-47
2023/10/14 02:51:29;;;;;;;;;;;;;;;11.37;100.00;100434.53;5113069;28;20323;-46
2023/10/14 02:53:56;;;;;;;;;;;;;;;11.35;100.00;100438.81;5113403;28;20325;-49
2023/10/14 02:56:32;;;;;;;;;;;;;;;11.33;100.00;100454.25;5113098;28;19998;-49
2023/10/14 02:58:57;;;;;;;;;;;;;;;11.27;100.00;100448.09;5112439;28;19915;-46
2023/10/14 03:01:23;;;;;;;;;;;;;;;11.20;100.00;100460.88;5112875;28;19912;-46
2023/10/14 03:03:48;;;;;;;;;;;;;;;11.15;100.00;100465.06;5113334;28;19911;-50
2023/10/14 03:06:14;;;;;;;;;;;;;;;11.08;100.00;100468.34;5112409;28;19908;-46
2023/10/14 03:08:41;;;;;;;;;;;;;;;11.02;100.00;100474.22;5113542;28;19911;-46
2023/10/14 03:11:16;;;;;;;;;;;;;;;10.96;100.00;100478.41;5113302;28;19957;-47
2023/10/14 03:13:41;;;;;;;;;;;;;;;10.90;100.00;100486.88;5112411;28;20350;-47
2023/10/14 03:16:06;;;;;;;;;;;;;;;10.85;100.00;100491.91;5113390;28;19919;-46
2023/10/14 03:18:37;;;;;;;;;;;;;;;10.77;100.00;100495.16;5113266;28;20287;-47
2023/10/14 03:21:08;;;;;;;;;;;;;;;10.70;100.00;100507.91;5116348;28;19912;-47
2023/10/14 03:23:34;;;;;;;;;;;;;;;10.63;100.00;100512.91;5116746;28;19912;-47
2023/10/14 03:26:13;;;;;;;;;;;;;;;10.56;100.00;100529.03;5116811;28;19911;-48
2023/10/14 03:28:39;;;;;;;;;;;;;;;10.50;100.00;100535.78;5116012;28;20359;-49
2023/10/14 03:31:08;;;;;;;;;;;;;;;10.43;100.00;100531.31;5116751;28;19919;-47
2023/10/14 03:33:42;;;;;;;;;;;;;;;10.36;100.00;100543.16;5116087;28;19912;-46
2023/10/14 03:36:07;;;;;;;;;;;;;;;10.29;100.00;100545.50;5116797;28;19911;-50
2023/10/14 03:41:03;;;;;;;;;;;;;;;10.16;100.00;100565.78;5115726;28;19912;-47
2023/10/14 03:43:29;;;;;;;;;;;;;;;10.10;100.00;100570.78;5116162;28;19994;-47
2023/10/14 03:46:03;;;;;;;;;;;;;;;10.04;100.00;100575.75;5116628;28;19911;-46
2023/10/14 03:48:30;;;;;;;;;;;;;;;9.97;100.00;100584.16;5115435;28;20003;-51
2023/10/14 03:51:02;;;;;;;;;;;;;;;9.91;100.00;100587.41;5116451;28;19935;-48
2023/10/14 03:53:31;;;;;;;;;;;;;;;9.87;100.00;100593.31;5116092;28;19941;-46
2023/10/14 03:55:57;;;;;;;;;;;;;;;9.82;100.00;100585.44;5115511;28;20328;-46
2023/10/14 03:58:26;;;;;;;;;;;;;;;9.77;100.00;100594.72;5115848;28;19916;-47
2023/10/14 04:00:52;;;;;;;;;;;;;;;9.74;100.00;100593.78;5116211;28;19911;-46
2023/10/14 04:03:39;;;;;;;;;;;;;;;9.69;100.00;100603.94;5115095;28;19918;-47
2023/10/14 04:06:07;;;;;;;;;;;;;;;9.63;100.00;100609.78;5116091;28;20351;-47
2023/10/14 04:08:39;;;;;;;;;;;;;;;9.59;100.00;100622.50;5116028;28;20381;-49
2023/10/14 04:11:14;;;;;;;;;;;;;;;9.53;100.00;100623.22;5115362;28;20256;-47
2023/10/14 04:13:41;;;;;;;;;;;;;;;9.50;100.00;100630.81;5115997;28;19912;-51
2023/10/14 04:16:08;;;;;;;;;;;;;;;9.45;100.00;100630.69;5114995;28;20519;-50
2023/10/14 04:18:36;;;;;;;;;;;;;;;9.40;100.00;100632.25;5116072;28;19915;-47
2023/10/14 04:23:42;;;;;;;;;;;;;;;9.31;100.00;100643.13;5115152;28;19922;-49
2023/10/14 04:26:11;;;;;;;;;;;;;;;9.27;100.00;100654.16;5115714;28;19915;-47
2023/10/14 04:28:39;;;;;;;;;;;;;;;9.23;100.00;100658.31;5115640;28;19919;-47
2023/10/14 04:31:08;;;;;;;;;;;;;;;9.20;100.00;100665.91;5114444;28;19915;-49
2023/10/14 04:33:35;;;;;;;;;;;;;;;9.18;100.00;100667.56;5115330;28;19912;-50
2023/10/14 04:36:36;;;;;;;;;;;;;;;9.16;100.00;100671.78;5115659;28;20015;-48
2023/10/14 04:39:05;;;;;;;;;;;;;;;9.14;100.00;100677.69;5114476;28;19914;-48
2023/10/14 04:41:30;;;;;;;;;;;;;;;9.11;100.00;100685.31;5115212;28;20008;-49
2023/10/14 04:46:32;;;;;;;;;;;;;;;9.03;100.00;100700.50;5115123;28;20010;-49
2023/10/14 04:49:06;;;;;;;;;;;;;;;8.99;100.00;100701.22;5115262;28;20355;-48
2023/10/14 04:51:38;;;;;;;;;;;;;;;8.96;100.00;100701.09;5114150;28;20046;-49
2023/10/14 04:54:09;;;;;;;;;;;;;;;8.95;100.00;100701.91;5115433;28;19911;-47
2023/10/14 04:56:35;;;;;;;;;;;;;;;8.92;100.00;100710.41;5115030;28;19980;-50
2023/10/14 04:59:00;;;;;;;;;;;;;;;8.92;100.00;100719.81;5114106;28;20287;-46
2023/10/14 05:01:27;;;;;;;;;;;;;;;8.92;100.00;100730.94;5114704;28;20359;-50
2023/10/14 05:03:58;;;;;;;;;;;;;;;8.90;100.00;100725.78;5114914;28;19951;-48
2023/10/14 05:06:29;;;;;;;;;;;;;;;8.92;100.00;100735.22;5113806;28;19911;-49
2023/10/14 05:08:55;;;;;;;;;;;;;;;8.90;100.00;100741.19;5114986;28;19919;-50
2023/10/14 05:11:22;;;;;;;;;;;;;;;8.88;100.00;100732.56;5114663;28;20006;-49
2023/10/14 05:16:49;;;;;;;;;;;;;;;8.86;100.00;100747.06;5114841;28;19964;-49
2023/10/14 05:19:15;;;;;;;;;;;;;;;8.86;100.00;100757.34;5113741;28;19911;-50
2023/10/14 05:21:43;;;;;;;;;;;;;;;8.83;100.00;100762.38;5114676;28;20335;-47
2023/10/14 05:24:09;;;;;;;;;;;;;;;8.83;100.00;100771.75;5114624;28;19919;-47
2023/10/14 05:26:44;;;;;;;;;;;;;;;8.81;100.00;100774.28;5113432;28;19912;-50
2023/10/14 05:29:19;;;;;;;;;;;;;;;8.80;100.00;100777.66;5114698;28;19911;-47
2023/10/14 05:31:47;;;;;;;;;;;;;;;8.80;100.00;100777.66;5114642;28;19912;-50
2023/10/14 05:34:13;;;;;;;;;;;;;;;8.80;100.00;100776.81;5113659;28;19918;-50
2023/10/14 05:36:39;;;;;;;;;;;;;;;8.80;100.00;100787.09;5114345;28;19912;-49
2023/10/14 05:39:05;;;;;;;;;;;;;;;8.78;100.00;100789.59;5114384;28;19991;-47
2023/10/14 05:41:30;;;;;;;;;;;;;;;8.76;100.00;100791.22;5113100;28;19920;-47
2023/10/14 05:43:55;;;;;;;;;;;;;;;8.73;100.00;100796.28;5113488;28;19911;-50
2023/10/14 05:46:20;;;;;;;;;;;;;;;8.73;100.00;100798.84;5114101;28;20301;-49
2023/10/14 05:48:46;;;;;;;;;;;;;;;8.73;100.00;100806.56;5113491;28;19926;-50
2023/10/14 05:51:11;;;;;;;;;;;;;;;8.73;100.00;100814.25;5113750;28;19911;-51
2023/10/14 05:53:36;;;;;;;;;;;;;;;8.76;100.00;100816.06;5113984;28;19919;-50
2023/10/14 05:56:14;;;;;;;;;;;;;;;8.76;100.00;100822.06;5113073;28;19911;-50
2023/10/14 05:58:40;;;;;;;;;;;;;;;8.76;100.00;100823.78;5113843;28;19922;-50
2023/10/14 06:01:16;;;;;;;;;;;;;;;8.75;100.00;100829.72;5114047;28;19911;-47
2023/10/14 06:03:41;;;;;;;;;;;;;;;8.76;100.00;100836.63;5114095;28;19912;-50
2023/10/14 06:06:09;;;;;;;;;;;;;;;8.76;100.00;100842.63;5113869;28;19908;-48
2023/10/14 06:08:35;;;;;;;;;;;;;;;8.77;100.00;100839.25;5112707;28;19918;-48
2023/10/14 06:11:00;;;;;;;;;;;;;;;8.82;100.00;100849.66;5113740;28;20010;-49
2023/10/14 06:13:27;;;;;;;;;;;;;;;8.86;100.00;100859.28;5113582;28;19912;-49
2023/10/14 06:15:53;;;;;;;;;;;;;;;8.89;100.00;100864.50;5113133;28;19913;-51
2023/10/14 06:18:18;;;;;;;;;;;;;;;8.92;100.00;100869.75;5113511;28;19961;-50
2023/10/14 06:20:47;;;;;;;;;;;;;;;8.94;100.00;100875.84;5113534;28;19965;-50
2023/10/14 06:23:12;;;;;;;;;;;;;;;8.98;100.00;100882.84;5112429;28;19911;-50
2023/10/14 06:25:38;;;;;;;;;;;;;;;9.03;100.00;100893.31;5113818;28;19953;-50
2023/10/14 06:28:04;;;;;;;;;;;;;;;9.07;100.00;100890.00;5113803;28;19912;-50
2023/10/14 06:30:30;;;;;;;;;;;;;;;9.10;100.00;100902.97;5112410;28;20351;-51
2023/10/14 06:33:03;;;;;;;;;;;;;;;9.14;100.00;100911.69;5113659;28;19911;-50
2023/10/14 06:35:29;;;;;;;;;;;;;;;9.14;100.00;100910.00;5113398;28;19915;-50
2023/10/14 06:37:54;;;;;;;;;;;;;;;9.16;100.00;100913.47;5112662;28;20404;-50
2023/10/14 06:40:19;;;;;;;;;;;;;;;9.18;100.00;100928.97;5113285;28;19911;-51
2023/10/14 06:42:53;;;;;;;;;;;;;;;9.20;100.00;100928.19;5113558;28;19916;-50
2023/10/14 06:45:21;;;;;;;;;;;;;;;9.22;100.00;100924.00;5112290;28;19912;-51
2023/10/14 06:47:49;;;;;;;;;;;;;;;9.18;100.00;100927.28;5113509;28;19969;-51
2023/10/14 06:50:15;;;;;;;;;;;;;;;9.15;100.00;100942.59;5113298;28;19935;-51
2023/10/14 06:52:40;;;;;;;;;;;;;;;9.11;100.00;100948.44;5112987;28;20016;-50
2023/10/14 06:55:07;;;;;;;;;;;;;;;9.08;100.00;100956.06;5116507;28;19919;-50
2023/10/14 06:57:34;;;;;;;;;;;;;;;9.03;100.00;100953.28;5116384;28;19918;-51
2023/10/14 07:00:00;;;;;;;;;;;;;;;9.02;100.00;100960.94;5117570;28;19911;-50
2023/10/14 07:02:25;;;;;;;;;;;;;;;9.02;100.00;100961.81;5116967;28;19919;-50
2023/10/14 07:04:50;;;;;;;;;;;;;;;9.05;100.00;100969.66;5116566;28;19916;-48
2023/10/14 07:07:19;;;;;;;;;;;;;;;9.09;100.00;100974.91;5117170;28;20355;-50
2023/10/14 07:09:44;;;;;;;;;;;;;;;9.11;100.00;100976.72;5117240;28;20006;-51
2023/10/14 07:12:15;;;;;;;;;;;;;;;9.12;100.00;100975.91;5116492;28;20341;-50
2023/10/14 07:14:41;;;;;;;;;;;;;;;9.14;100.00;100979.44;5117086;28;19912;-51
2023/10/14 07:17:07;;;;;;;;;;;;;;;9.17;100.00;100987.25;5117164;28;19924;-51
2023/10/14 07:19:32;;;;;;;;;;;;;;;9.21;100.00;100985.66;5115941;28;19912;-51
2023/10/14 07:21:57;;;;;;;;;;;;;;;9.26;100.00;100994.44;5117024;28;20270;-51
2023/10/14 07:24:22;;;;;;;;;;;;;;;9.29;100.00;100984.25;5116623;28;19918;-51
2023/10/14 07:26:47;;;;;;;;;;;;;;;9.33;100.00;100998.97;5116177;28;19908;-50
2023/10/14 07:29:13;;;;;;;;;;;;;;;9.38;100.00;101001.72;5116534;28;19918;-50
2023/10/14 07:31:41;;;;;;;;;;;;;;;9.42;100.00;101008.72;5116748;28;19919;-51
2023/10/14 07:34:08;;;;;;;;;;;;;;;9.49;100.00;101012.38;5115869;28;20381;-51
2023/10/14 07:36:34;;;;;;;;;;;;;;;9.55;100.00;101007.47;5116626;28;19918;-51
2023/10/14 07:39:25;;;;;;;;;;;;;;;9.60;100.00;101025.66;5116820;28;19907;-51
2023/10/14 07:41:52;;;;;;;;;;;;;;;9.67;100.00;101027.63;5115690;28;19964;-51
2023/10/14 07:44:17;;;;;;;;;;;;;;;9.74;100.00;101037.34;5116297;28;20302;-50
2023/10/14 07:46:42;;;;;;;;;;;;;;;9.83;100.00;101044.50;5116516;28;20390;-50
2023/10/14 07:49:08;;;;;;;;;;;;;;;9.88;100.00;101043.84;5115820;28;19912;-51
2023/10/14 07:51:33;;;;;;;;;;;;;;;9.94;100.00;101048.34;5116224;28;19912;-50
2023/10/14 07:53:59;;;;;;;;;;;;;;;10.02;100.00;101048.63;5115663;28;19974;-50
2023/10/14 07:56:24;;;;;;;;;;;;;;;10.09;100.00;101053.16;5116118;28;19912;-49
2023/10/14 07:58:52;;;;;;;;;;;;;;;10.16;100.00;101055.13;5115985;28;19972;-50
2023/10/14 08:01:18;;;;;;;;;;;;;;;10.23;100.00;101053.63;5114873;28;19915;-50
2023/10/14 08:03:43;;;;;;;;;;;;;;;10.29;100.00;101058.09;5116184;28;19912;-49
2023/10/14 08:06:10;;;;;;;;;;;;;;;10.35;100.00;101066.97;5115227;28;19911;-50
2023/10/14 08:08:42;;;;;;;;;;;;;;;10.43;100.00;101058.59;5115163;28;19912;-51
2023/10/14 08:11:07;;;;;;;;;;;;;;;10.49;100.00;101070.00;5116012;28;19911;-50
2023/10/14 08:13:33;;;;;;;;;;;;;;;10.58;100.00;101071.13;5115812;28;19918;-51
2023/10/14 08:15:59;;;;;;;;;;;;;;;10.66;100.00;101074.84;5115206;28;19915;-50
2023/10/14 08:18:24;;;;;;;;;;;;;;;10.75;100.00;101082.88;5115720;28;19911;-51
2023/10/14 08:20:53;;;;;;;;;;;;;;;10.84;100.00;101090.03;5115884;28;19961;-51
2023/10/14 08:23:20;;;;;;;;;;;;;;;10.90;100.00;101087.66;5114589;28;19912;-51
2023/10/14 08:25:46;;;;;;;;;;;;;;;10.99;100.00;101098.25;5115974;28;19919;-51
2023/10/14 08:28:11;;;;;;;;;;;;;;;11.10;100.00;101096.00;5115314;28;19912;-51
2023/10/14 08:30:45;;;;;;;;;;;;;;;11.22;100.00;101102.38;5115095;28;19919;-51
2023/10/14 08:33:13;;;;;;;;;;;;;;;11.33;100.00;101095.84;5115802;28;19911;-51
2023/10/14 08:35:44;;;;;;;;;;;;;;;11.43;100.00;101105.63;5115659;28;19921;-50
2023/10/14 08:38:11;;;;;;;;;;;;;;;11.53;100.00;101111.94;5114720;28;20282;-51
2023/10/14 08:40:37;;;;;;;;;;;;;;;11.62;100.00;101112.22;5115241;28;19959;-51
2023/10/14 08:43:06;;;;;;;;;;;;;;;11.72;100.00;101110.75;5114696;28;20003;-49
2023/10/14 08:45:36;;;;;;;;;;;;;;;11.82;100.00;101124.84;5115167;28;19919;-51
2023/10/14 08:48:01;;;;;;;;;;;;;;;11.95;100.00;101126.06;5115422;28;19911;-51
2023/10/14 08:50:33;;;;;;;;;;;;;;;12.07;100.00;101126.44;5114132;28;20287;-50
2023/10/14 08:53:00;;;;;;;;;;;;;;;12.20;100.00;101138.00;5115160;28;19911;-51
2023/10/14 08:55:28;;;;;;;;;;;;;;;12.29;100.00;101129.59;5114694;28;20317;-51
2023/10/14 08:57:54;;;;;;;;;;;;;;;12.38;100.00;101137.59;5114090;28;20283;-51
2023/10/14 09:00:23;;;;;;;;;;;;;;;12.47;100.00;101142.13;5114722;28;19911;-50
2023/10/14 09:02:49;;;;;;;;;;;;;;;12.61;100.00;101150.28;5115158;28;19918;-50
2023/10/14 09:05:16;;;;;;;;;;;;;;;12.72;100.00;101137.59;5113723;28;19911;-51
2023/10/14 09:07:43;;;;;;;;;;;;;;;12.81;100.00;101154.25;5114903;28;19911;-50
2023/10/14 09:10:09;;;;;;;;;;;;;;;12.91;100.00;101154.47;5115029;28;19916;-50
2023/10/14 09:12:34;;;;;;;;;;;;;;;13.07;100.00;101160.91;5113913;28;20003;-51
2023/10/14 09:14:59;;;;;;;;;;;;;;;13.22;100.00;101165.56;5114744;28;20309;-51
2023/10/14 09:17:24;;;;;;;;;;;;;;;13.27;100.00;101162.25;5114219;28;19912;-51
2023/10/14 09:19:53;;;;;;;;;;;;;;;13.47;100.00;101167.91;5113900;28;19919;-51
2023/10/14 09:22:22;;;;;;;;;;;;;;;13.69;98.63;101165.81;5114140;28;20007;-50
2023/10/14 09:24:48;;;;;;;;;;;;;;;13.94;97.70;101168.94;5114770;28;19911;-50
2023/10/14 09:27:14;;;;;;;;;;;;;;;14.19;99.63;101170.31;5113700;28;19919;-51
2023/10/14 09:29:39;;;;;;;;;;;;;;;14.41;97.45;101158.63;5114367;28;19912;-51
2023/10/14 09:32:05;;;;;;;;;;;;;;;14.49;91.20;101158.78;5114681;28;19911;-51
2023/10/14 09:34:30;;;;;;;;;;;;;;;14.52;96.88;101165.75;5113419;28;19915;-51
2023/10/14 09:36:55;;;;;;;;;;;;;;;14.70;97.59;101158.31;5114291;28;19918;-51
2023/10/14 09:39:24;;;;;;;;;;;;;;;15.05;100.00;101163.22;5113425;28;19915;-51
2023/10/14 09:41:51;;;;;;;;;;;;;;;15.26;93.17;101164.41;5114224;28;19918;-51
2023/10/14 09:44:17;;;;;;;;;;;;;;;15.02;84.91;101170.97;5113848;28;19918;-51
2023/10/14 09:46:44;;;;;;;;;;;;;;;14.75;87.36;101193.00;5113424;28;20248;-51
2023/10/14 09:49:10;;;;;;;;;;;;;;;14.54;83.76;101177.91;5114448;28;19912;-51
2023/10/14 09:51:36;;;;;;;;;;;;;;;14.66;81.37;101177.28;5114035;28;19951;-51
2023/10/14 09:54:03;;;;;;;;;;;;;;;14.90;84.79;101181.13;5113535;28;19939;-51
2023/10/14 09:56:30;;;;;;;;;;;;;;;14.96;82.30;101186.44;5113860;28;19945;-51
2023/10/14 09:58:55;;;;;;;;;;;;;;;14.87;76.76;101186.28;5113979;28;19916;-50
2023/10/14 10:01:24;;;;;;;;;;;;;;;15.01;74.95;101183.94;5112764;28;20386;-51
2023/10/14 10:03:57;;;;;;;;;;;;;;;15.22;79.62;101191.19;5113927;28;19912;-51
2023/10/14 10:06:28;;;;;;;;;;;;;;;15.12;70.45;101193.63;5113686;28;19919;-51
2023/10/14 10:09:07;;;;;;;;;;;;;;;15.13;70.12;101197.09;5112926;28;20287;-51
2023/10/14 10:11:35;;;;;;;;;;;;;;;15.46;72.24;101193.28;5113542;28;19908;-51
2023/10/14 10:14:01;;;;;;;;;;;;;;;15.69;65.97;101198.81;5113969;28;19911;-52
2023/10/14 10:16:30;;;;;;;;;;;;;;;15.75;65.31;101201.50;5112531;28;19912;-51
2023/10/14 10:18:56;;;;;;;;;;;;;;;15.83;63.94;101203.34;5113921;28;20004;-51
2023/10/14 10:21:24;;;;;;;;;;;;;;;15.88;63.25;101199.09;5113536;28;19911;-52
2023/10/14 10:23:55;;;;;;;;;;;;;;;16.00;60.61;101203.56;5112941;28;19911;-50
2023/10/14 10:26:23;;;;;;;;;;;;;;;15.96;60.55;101213.09;5113452;28;19911;-51
2023/10/14 10:28:48;;;;;;;;;;;;;;;15.73;61.96;101211.00;5114966;28;19912;-50
2023/10/14 10:31:16;;;;;;;;;;;;;;;15.89;68.84;101214.69;5119978;28;19918;-50
2023/10/14 10:33:49;;;;;;;;;;;;;;;16.28;62.85;101210.00;5120519;28;19943;-51
2023/10/14 10:36:19;;;;;;;;;;;;;;;16.60;59.36;101209.50;5119470;28;19911;-52
2023/10/14 10:38:45;;;;;;;;;;;;;;;16.93;63.85;101218.53;5120495;28;19942;-51
2023/10/14 10:41:24;;;;;;;;;;;;;;;17.21;60.50;101218.75;5119912;28;19916;-51
2023/10/14 10:43:49;;;;;;;;;;;;;;;17.59;69.32;101231.22;5119671;28;19919;-52
2023/10/14 10:46:34;;;;;;;;;;;;;;;18.19;64.09;101228.97;5119873;28;19908;-51
2023/10/14 10:48:59;;;;;;;;;;;;;;;18.66;61.81;101229.97;5120390;28;19915;-52
2023/10/14 10:51:29;;;;;;;;;;;;;;;18.48;59.16;101245.59;5119269;28;19915;-52
2023/10/14 10:53:55;;;;;;;;;;;;;;;18.16;58.91;101244.59;5120173;28;19965;-52
2023/10/14 10:56:20;;;;;;;;;;;;;;;17.71;63.57;101251.25;5119943;28;19912;-52
2023/10/14 10:58:45;;;;;;;;;;;;;;;17.04;64.62;101248.16;5119146;28;19994;-51
2023/10/14 11:01:11;;;;;;;;;;;;;;;16.40;61.62;101259.56;5119655;28;19919;-49
2023/10/14 11:03:37;;;;;;;;;;;;;;;15.76;70.84;101250.03;5120337;28;19998;-51
2023/10/14 11:06:02;;;;;;;;;;;;;;;15.20;71.10;101248.28;5119353;28;20003;-52
2023/10/14 11:08:27;;;;;;;;;;;;;;;14.71;71.98;101253.47;5119916;28;19911;-51
2023/10/14 11:10:53;;;;;;;;;;;;;;;14.27;71.60;101254.28;5119238;28;19918;-51
2023/10/14 11:13:18;;;;;;;;;;;;;;;13.90;72.45;101255.22;5119961;28;19911;-50
2023/10/14 11:15:45;;;;;;;;;;;;;;;13.58;73.54;101257.94;5120237;28;19912;-52
2023/10/14 11:18:10;;;;;;;;;;;;;;;13.33;77.57;101254.72;5119281;28;19911;-51
2023/10/14 11:20:40;;;;;;;;;;;;;;;13.16;77.49;101259.47;5119752;28;19918;-51
2023/10/14 11:23:08;;;;;;;;;;;;;;;13.14;82.30;101254.25;5119877;28;19911;-51
2023/10/14 11:25:36;;;;;;;;;;;;;;;13.65;82.48;101259.84;5118895;28;20259;-50
2023/10/14 11:28:05;;;;;;;;;;;;;;;13.83;74.79;101256.81;5120060;28;19912;-51
2023/10/14 11:30:31;;;;;;;;;;;;;;;13.61;76.25;101255.44;5119735;28;19912;-52
2023/10/14 11:32:59;;;;;;;;;;;;;;;13.28;72.87;101264.09;5119154;28;19911;-51
2023/10/14 11:35:28;;;;;;;;;;;;;;;13.10;75.54;101273.13;5119435;28;20286;-51
2023/10/14 11:37:55;;;;;;;;;;;;;;;13.48;78.77;101259.44;5119796;28;19919;-52
2023/10/14 11:40:25;;;;;;;;;;;;;;;14.27;74.49;101256.03;5117644;28;19944;-51
2023/10/14 11:42:54;;;;;;;;;;;;;;;15.05;66.28;101264.44;5116785;28;19912;-51
2023/10/14 11:45:20;;;;;;;;;;;;;;;15.32;63.07;101263.19;5116315;28;19918;-50
2023/10/14 11:47:46;;;;;;;;;;;;;;;15.51;64.74;101266.09;5115716;28;19952;-52
2023/10/14 11:50:11;;;;;;;;;;;;;;;15.78;56.54;101269.13;5116106;28;19980;-51
2023/10/14 11:52:42;;;;;;;;;;;;;;;15.98;63.26;101265.94;5116462;28;19911;-51
2023/10/14 11:55:11;;;;;;;;;;;;;;;15.86;61.31;101261.47;5115781;28;19946;-51
2023/10/14 11:57:37;;;;;;;;;;;;;;;15.31;60.51;101271.81;5116157;28;20359;-52
2023/10/14 12:00:02;;;;;;;;;;;;;;;14.68;61.88;101274.16;5115549;28;19919;-52
2023/10/14 12:02:29;;;;;;;;;;;;;;;14.67;69.39;101277.59;5115779;28;19918;-51
2023/10/14 12:04:54;;;;;;;;;;;;;;;15.23;65.62;101283.81;5116133;28;19918;-51
2023/10/14 12:07:21;;;;;;;;;;;;;;;15.74;63.96;101272.53;5114881;28;19916;-51
2023/10/14 12:09:46;;;;;;;;;;;;;;;16.22;61.98;101269.75;5116009;28;19919;-51
2023/10/14 12:12:12;;;;;;;;;;;;;;;16.58;59.85;101273.66;5115721;28;19965;-51
2023/10/14 12:14:37;;;;;;;;;;;;;;;16.81;56.14;101275.63;5115553;28;19916;-51
2023/10/14 12:17:04;;;;;;;;;;;;;;;16.88;62.30;101277.47;5116074;28;19919;-51
2023/10/14 12:19:30;;;;;;;;;;;;;;;16.38;57.03;101278.63;5115609;28;19912;-52
2023/10/14 12:21:55;;;;;;;;;;;;;;;16.13;57.75;101284.38;5115060;28;19918;-52
2023/10/14 12:24:20;;;;;;;;;;;;;;;16.02;59.64;101287.69;5115639;28;20339;-52
2023/10/14 12:26:45;;;;;;;;;;;;;;;15.80;55.76;101271.72;5115641;28;20359;-51
2023/10/14 12:29:11;;;;;;;;;;;;;;;15.49;59.20;101273.84;5114700;28;19918;-52
2023/10/14 12:31:41;;;;;;;;;;;;;;;15.05;62.87;101277.44;5115673;28;20039;-52
2023/10/14 12:34:10;;;;;;;;;;;;;;;14.56;65.97;101286.84;5115560;28;19911;-51
2023/10/14 12:36:40;;;;;;;;;;;;;;;14.08;65.84;101286.72;5114966;28;19912;-52
2023/10/14 12:39:09;;;;;;;;;;;;;;;14.08;66.50;101289.31;5115583;28;19912;-52
2023/10/14 12:41:39;;;;;;;;;;;;;;;14.63;68.94;101291.34;5115088;28;19947;-52
2023/10/14 12:44:08;;;;;;;;;;;;;;;15.32;63.52;101286.56;5115083;28;20380;-50
2023/10/14 12:46:40;;;;;;;;;;;;;;;15.80;66.47;101290.81;5115030;28;19964;-52
2023/10/14 12:49:07;;;;;;;;;;;;;;;16.38;65.17;101292.47;5115537;28;19919;-52
2023/10/14 12:51:35;;;;;;;;;;;;;;;16.88;59.59;101304.34;5113849;28;19918;-51